sensor_id;sensor_type;location;lat;lon;timestamp;P1;durP1;ratioP1;P2;durP2;ratioP2
79585;SDS011;69054;50.866;4.636;2023-07-20T00:02:09;12.05;;;4.78;;
79585;SDS011;69054;50.866;4.636;2023-07-20T00:04:34;9.75;;;5.13;;
79585;SDS011;69054;50.866;4.636;2023-07-20T00:07:00;13.50;;;5.05;;
79585;SDS011;69054;50.866;4.636;2023-07-20T00:09:26;10.88;;;5.70;;
79585;SDS011;69054;50.866;4.636;2023-07-20T00:11:52;9.35;;;4.85;;
79585;SDS011;69054;50.866;4.636;2023-07-20T00:14:18;11.93;;;5.43;;
79585;SDS011;69054;50.866;4.636;2023-07-20T00:16:44;12.43;;;5.32;;
79585;SDS011;69054;50.866;4.636;2023-07-20T00:19:11;10.90;;;4.95;;
79585;SDS011;69054;50.866;4.636;2023-07-20T00:21:37;13.30;;;5.25;;
79585;SDS011;69054;50.866;4.636;2023-07-20T00:24:05;12.52;;;4.93;;
79585;SDS011;69054;50.866;4.636;2023-07-20T00:26:30;9.98;;;5.18;;
79585;SDS011;69054;50.866;4.636;2023-07-20T00:28:56;9.77;;;4.60;;
79585;SDS011;69054;50.866;4.636;2023-07-20T00:31:21;9.02;;;5.28;;
79585;SDS011;69054;50.866;4.636;2023-07-20T00:33:46;8.38;;;4.32;;
79585;SDS011;69054;50.866;4.636;2023-07-20T00:36:12;12.50;;;4.80;;
79585;SDS011;69054;50.866;4.636;2023-07-20T00:38:37;8.77;;;4.55;;
79585;SDS011;69054;50.866;4.636;2023-07-20T00:41:03;7.97;;;4.97;;
79585;SDS011;69054;50.866;4.636;2023-07-20T00:43:28;9.02;;;4.53;;
79585;SDS011;69054;50.866;4.636;2023-07-20T00:45:54;8.63;;;4.38;;
79585;SDS011;69054;50.866;4.636;2023-07-20T00:48:20;9.65;;;4.18;;
79585;SDS011;69054;50.866;4.636;2023-07-20T00:50:45;8.25;;;4.50;;
79585;SDS011;69054;50.866;4.636;2023-07-20T00:53:12;8.50;;;3.70;;
79585;SDS011;69054;50.866;4.636;2023-07-20T00:55:37;8.68;;;4.03;;
79585;SDS011;69054;50.866;4.636;2023-07-20T00:58:03;7.25;;;3.83;;
79585;SDS011;69054;50.866;4.636;2023-07-20T01:00:29;12.15;;;5.78;;
79585;SDS011;69054;50.866;4.636;2023-07-20T01:02:55;8.07;;;4.28;;
79585;SDS011;69054;50.866;4.636;2023-07-20T01:05:20;8.30;;;4.47;;
79585;SDS011;69054;50.866;4.636;2023-07-20T01:07:49;9.75;;;4.45;;
79585;SDS011;69054;50.866;4.636;2023-07-20T01:13:01;12.52;;;4.63;;
79585;SDS011;69054;50.866;4.636;2023-07-20T01:15:28;8.00;;;4.35;;
79585;SDS011;69054;50.866;4.636;2023-07-20T01:17:53;12.65;;;4.63;;
79585;SDS011;69054;50.866;4.636;2023-07-20T01:20:19;9.20;;;4.35;;
79585;SDS011;69054;50.866;4.636;2023-07-20T01:33:52;10.63;;;4.82;;
79585;SDS011;69054;50.866;4.636;2023-07-20T01:36:21;9.65;;;4.45;;
79585;SDS011;69054;50.866;4.636;2023-07-20T01:38:50;9.55;;;4.78;;
79585;SDS011;69054;50.866;4.636;2023-07-20T01:41:16;9.52;;;5.38;;
79585;SDS011;69054;50.866;4.636;2023-07-20T01:43:43;7.80;;;4.80;;
79585;SDS011;69054;50.866;4.636;2023-07-20T01:46:08;10.30;;;5.25;;
79585;SDS011;69054;50.866;4.636;2023-07-20T01:48:33;11.57;;;4.90;;
79585;SDS011;69054;50.866;4.636;2023-07-20T01:50:59;13.02;;;5.60;;
79585;SDS011;69054;50.866;4.636;2023-07-20T01:53:24;9.07;;;5.10;;
79585;SDS011;69054;50.866;4.636;2023-07-20T01:55:52;11.30;;;5.82;;
79585;SDS011;69054;50.866;4.636;2023-07-20T01:58:18;14.32;;;7.03;;
79585;SDS011;69054;50.866;4.636;2023-07-20T02:00:43;10.68;;;6.05;;
79585;SDS011;69054;50.866;4.636;2023-07-20T02:03:09;13.45;;;7.00;;
79585;SDS011;69054;50.866;4.636;2023-07-20T02:05:34;14.65;;;6.80;;
79585;SDS011;69054;50.866;4.636;2023-07-20T02:08:00;16.92;;;6.50;;
79585;SDS011;69054;50.866;4.636;2023-07-20T02:10:25;12.60;;;5.65;;
79585;SDS011;69054;50.866;4.636;2023-07-20T02:12:50;18.83;;;6.20;;
79585;SDS011;69054;50.866;4.636;2023-07-20T02:15:16;16.02;;;6.28;;
79585;SDS011;69054;50.866;4.636;2023-07-20T02:17:43;14.23;;;6.10;;
79585;SDS011;69054;50.866;4.636;2023-07-20T02:20:09;17.90;;;6.00;;
79585;SDS011;69054;50.866;4.636;2023-07-20T02:22:35;12.52;;;6.25;;
79585;SDS011;69054;50.866;4.636;2023-07-20T02:25:03;12.10;;;5.22;;
79585;SDS011;69054;50.866;4.636;2023-07-20T02:29:57;13.80;;;6.18;;
79585;SDS011;69054;50.866;4.636;2023-07-20T02:32:23;14.07;;;5.70;;
79585;SDS011;69054;50.866;4.636;2023-07-20T02:34:48;15.80;;;6.78;;
79585;SDS011;69054;50.866;4.636;2023-07-20T02:37:13;13.57;;;6.15;;
79585;SDS011;69054;50.866;4.636;2023-07-20T02:39:39;13.00;;;6.15;;
79585;SDS011;69054;50.866;4.636;2023-07-20T02:42:04;15.13;;;5.85;;
79585;SDS011;69054;50.866;4.636;2023-07-20T02:44:30;31.70;;;7.28;;
79585;SDS011;69054;50.866;4.636;2023-07-20T02:46:56;10.70;;;5.68;;
79585;SDS011;69054;50.866;4.636;2023-07-20T02:49:21;12.57;;;6.03;;
79585;SDS011;69054;50.866;4.636;2023-07-20T02:51:46;14.18;;;5.80;;
79585;SDS011;69054;50.866;4.636;2023-07-20T02:54:12;15.65;;;6.38;;
79585;SDS011;69054;50.866;4.636;2023-07-20T02:56:37;10.52;;;5.72;;
79585;SDS011;69054;50.866;4.636;2023-07-20T02:59:03;14.85;;;6.88;;
79585;SDS011;69054;50.866;4.636;2023-07-20T03:01:29;16.63;;;7.45;;
79585;SDS011;69054;50.866;4.636;2023-07-20T03:03:54;17.60;;;7.07;;
79585;SDS011;69054;50.866;4.636;2023-07-20T03:06:20;16.00;;;7.78;;
79585;SDS011;69054;50.866;4.636;2023-07-20T03:08:46;23.17;;;8.45;;
79585;SDS011;69054;50.866;4.636;2023-07-20T03:11:18;17.02;;;8.07;;
79585;SDS011;69054;50.866;4.636;2023-07-20T03:13:45;19.08;;;7.93;;
79585;SDS011;69054;50.866;4.636;2023-07-20T03:16:11;23.73;;;8.88;;
79585;SDS011;69054;50.866;4.636;2023-07-20T03:18:41;26.40;;;9.48;;
79585;SDS011;69054;50.866;4.636;2023-07-20T03:21:07;25.50;;;9.93;;
79585;SDS011;69054;50.866;4.636;2023-07-20T03:23:33;22.63;;;9.50;;
79585;SDS011;69054;50.866;4.636;2023-07-20T03:25:59;24.35;;;10.40;;
79585;SDS011;69054;50.866;4.636;2023-07-20T03:28:25;23.98;;;9.82;;
79585;SDS011;69054;50.866;4.636;2023-07-20T03:30:57;24.60;;;9.02;;
79585;SDS011;69054;50.866;4.636;2023-07-20T03:33:24;24.30;;;9.77;;
79585;SDS011;69054;50.866;4.636;2023-07-20T03:35:50;30.33;;;10.02;;
79585;SDS011;69054;50.866;4.636;2023-07-20T03:38:16;25.77;;;9.43;;
79585;SDS011;69054;50.866;4.636;2023-07-20T03:40:48;25.38;;;9.10;;
79585;SDS011;69054;50.866;4.636;2023-07-20T03:43:21;29.45;;;8.90;;
79585;SDS011;69054;50.866;4.636;2023-07-20T03:45:47;27.33;;;9.13;;
79585;SDS011;69054;50.866;4.636;2023-07-20T03:48:16;31.83;;;10.88;;
79585;SDS011;69054;50.866;4.636;2023-07-20T03:50:43;28.90;;;11.18;;
79585;SDS011;69054;50.866;4.636;2023-07-20T03:53:10;27.58;;;10.65;;
79585;SDS011;69054;50.866;4.636;2023-07-20T03:55:35;30.52;;;11.80;;
79585;SDS011;69054;50.866;4.636;2023-07-20T03:58:00;28.40;;;11.27;;
79585;SDS011;69054;50.866;4.636;2023-07-20T04:00:26;32.85;;;11.80;;
79585;SDS011;69054;50.866;4.636;2023-07-20T04:02:52;28.90;;;11.60;;
79585;SDS011;69054;50.866;4.636;2023-07-20T04:05:17;33.40;;;12.05;;
79585;SDS011;69054;50.866;4.636;2023-07-20T04:07:43;32.90;;;12.20;;
79585;SDS011;69054;50.866;4.636;2023-07-20T04:10:08;33.38;;;12.68;;
79585;SDS011;69054;50.866;4.636;2023-07-20T04:12:34;31.90;;;11.88;;
79585;SDS011;69054;50.866;4.636;2023-07-20T04:14:59;34.28;;;12.50;;
79585;SDS011;69054;50.866;4.636;2023-07-20T04:17:25;33.38;;;12.18;;
79585;SDS011;69054;50.866;4.636;2023-07-20T04:19:51;28.63;;;12.32;;
79585;SDS011;69054;50.866;4.636;2023-07-20T04:22:16;33.92;;;12.43;;
79585;SDS011;69054;50.866;4.636;2023-07-20T04:24:42;31.02;;;13.05;;
79585;SDS011;69054;50.866;4.636;2023-07-20T04:27:08;31.83;;;12.32;;
79585;SDS011;69054;50.866;4.636;2023-07-20T04:29:33;31.98;;;11.90;;
79585;SDS011;69054;50.866;4.636;2023-07-20T04:31:58;28.17;;;11.75;;
79585;SDS011;69054;50.866;4.636;2023-07-20T04:34:24;26.90;;;11.55;;
79585;SDS011;69054;50.866;4.636;2023-07-20T04:36:49;31.88;;;11.20;;
79585;SDS011;69054;50.866;4.636;2023-07-20T04:39:15;26.13;;;11.20;;
79585;SDS011;69054;50.866;4.636;2023-07-20T04:41:40;28.38;;;10.98;;
79585;SDS011;69054;50.866;4.636;2023-07-20T04:44:05;24.80;;;10.88;;
79585;SDS011;69054;50.866;4.636;2023-07-20T04:46:31;25.08;;;10.90;;
79585;SDS011;69054;50.866;4.636;2023-07-20T04:48:56;25.85;;;11.80;;
79585;SDS011;69054;50.866;4.636;2023-07-20T04:51:21;27.48;;;11.13;;
79585;SDS011;69054;50.866;4.636;2023-07-20T04:53:47;25.90;;;11.35;;
79585;SDS011;69054;50.866;4.636;2023-07-20T04:56:13;23.70;;;12.18;;
79585;SDS011;69054;50.866;4.636;2023-07-20T04:58:38;27.77;;;13.40;;
79585;SDS011;69054;50.866;4.636;2023-07-20T05:01:04;23.50;;;10.82;;
79585;SDS011;69054;50.866;4.636;2023-07-20T05:03:29;21.55;;;10.88;;
79585;SDS011;69054;50.866;4.636;2023-07-20T05:05:55;21.83;;;10.57;;
79585;SDS011;69054;50.866;4.636;2023-07-20T05:08:20;21.88;;;11.20;;
79585;SDS011;69054;50.866;4.636;2023-07-20T05:10:47;21.52;;;11.18;;
79585;SDS011;69054;50.866;4.636;2023-07-20T05:13:12;23.02;;;12.05;;
79585;SDS011;69054;50.866;4.636;2023-07-20T05:15:38;22.95;;;11.20;;
79585;SDS011;69054;50.866;4.636;2023-07-20T05:18:03;23.67;;;12.15;;
79585;SDS011;69054;50.866;4.636;2023-07-20T05:20:29;26.63;;;13.10;;
79585;SDS011;69054;50.866;4.636;2023-07-20T05:22:54;23.25;;;12.10;;
79585;SDS011;69054;50.866;4.636;2023-07-20T05:25:19;22.73;;;11.52;;
79585;SDS011;69054;50.866;4.636;2023-07-20T05:27:47;25.95;;;12.65;;
79585;SDS011;69054;50.866;4.636;2023-07-20T05:30:13;24.98;;;12.63;;
79585;SDS011;69054;50.866;4.636;2023-07-20T05:32:38;22.70;;;13.35;;
79585;SDS011;69054;50.866;4.636;2023-07-20T05:35:04;22.23;;;12.25;;
79585;SDS011;69054;50.866;4.636;2023-07-20T05:37:29;22.80;;;12.32;;
79585;SDS011;69054;50.866;4.636;2023-07-20T05:39:55;24.27;;;12.85;;
79585;SDS011;69054;50.866;4.636;2023-07-20T05:42:20;23.05;;;12.02;;
79585;SDS011;69054;50.866;4.636;2023-07-20T05:44:46;22.95;;;11.98;;
79585;SDS011;69054;50.866;4.636;2023-07-20T05:47:13;23.80;;;12.13;;
79585;SDS011;69054;50.866;4.636;2023-07-20T05:49:38;22.63;;;12.10;;
79585;SDS011;69054;50.866;4.636;2023-07-20T05:52:04;19.77;;;11.85;;
79585;SDS011;69054;50.866;4.636;2023-07-20T05:54:29;25.15;;;13.02;;
79585;SDS011;69054;50.866;4.636;2023-07-20T05:56:55;20.33;;;12.02;;
79585;SDS011;69054;50.866;4.636;2023-07-20T05:59:20;22.27;;;12.07;;
79585;SDS011;69054;50.866;4.636;2023-07-20T06:01:45;19.00;;;11.05;;
79585;SDS011;69054;50.866;4.636;2023-07-20T06:04:13;19.05;;;10.50;;
79585;SDS011;69054;50.866;4.636;2023-07-20T06:06:39;19.25;;;10.73;;
79585;SDS011;69054;50.866;4.636;2023-07-20T06:09:04;21.05;;;11.52;;
79585;SDS011;69054;50.866;4.636;2023-07-20T06:11:30;19.25;;;10.25;;
79585;SDS011;69054;50.866;4.636;2023-07-20T06:13:56;17.88;;;10.77;;
79585;SDS011;69054;50.866;4.636;2023-07-20T06:16:22;17.00;;;10.10;;
79585;SDS011;69054;50.866;4.636;2023-07-20T06:18:47;16.65;;;10.35;;
79585;SDS011;69054;50.866;4.636;2023-07-20T06:21:13;19.15;;;11.23;;
79585;SDS011;69054;50.866;4.636;2023-07-20T06:23:38;20.65;;;9.93;;
79585;SDS011;69054;50.866;4.636;2023-07-20T06:26:05;16.83;;;10.07;;
79585;SDS011;69054;50.866;4.636;2023-07-20T06:28:31;17.27;;;9.55;;
79585;SDS011;69054;50.866;4.636;2023-07-20T06:31:00;15.20;;;9.50;;
79585;SDS011;69054;50.866;4.636;2023-07-20T06:33:28;12.90;;;9.00;;
79585;SDS011;69054;50.866;4.636;2023-07-20T06:35:53;13.05;;;8.98;;
79585;SDS011;69054;50.866;4.636;2023-07-20T06:38:19;15.88;;;10.15;;
79585;SDS011;69054;50.866;4.636;2023-07-20T06:40:51;14.95;;;9.25;;
79585;SDS011;69054;50.866;4.636;2023-07-20T06:43:16;16.92;;;9.45;;
79585;SDS011;69054;50.866;4.636;2023-07-20T06:45:42;14.75;;;9.90;;
79585;SDS011;69054;50.866;4.636;2023-07-20T06:48:08;16.98;;;10.52;;
79585;SDS011;69054;50.866;4.636;2023-07-20T06:50:33;17.48;;;9.13;;
79585;SDS011;69054;50.866;4.636;2023-07-20T06:52:59;15.48;;;9.70;;
79585;SDS011;69054;50.866;4.636;2023-07-20T06:55:24;16.13;;;9.35;;
79585;SDS011;69054;50.866;4.636;2023-07-20T06:57:50;15.50;;;9.55;;
79585;SDS011;69054;50.866;4.636;2023-07-20T07:00:16;17.30;;;10.52;;
79585;SDS011;69054;50.866;4.636;2023-07-20T07:02:42;17.05;;;10.45;;
79585;SDS011;69054;50.866;4.636;2023-07-20T07:05:07;15.30;;;10.27;;
79585;SDS011;69054;50.866;4.636;2023-07-20T07:07:32;16.83;;;10.60;;
79585;SDS011;69054;50.866;4.636;2023-07-20T07:09:58;14.30;;;9.95;;
79585;SDS011;69054;50.866;4.636;2023-07-20T07:12:24;15.10;;;10.20;;
79585;SDS011;69054;50.866;4.636;2023-07-20T07:14:50;14.68;;;10.27;;
79585;SDS011;69054;50.866;4.636;2023-07-20T07:17:15;16.20;;;10.48;;
79585;SDS011;69054;50.866;4.636;2023-07-20T07:19:40;14.13;;;9.63;;
79585;SDS011;69054;50.866;4.636;2023-07-20T07:22:07;16.17;;;9.32;;
79585;SDS011;69054;50.866;4.636;2023-07-20T07:24:32;19.17;;;10.60;;
79585;SDS011;69054;50.866;4.636;2023-07-20T07:27:01;15.10;;;9.48;;
79585;SDS011;69054;50.866;4.636;2023-07-20T07:29:27;13.77;;;9.18;;
79585;SDS011;69054;50.866;4.636;2023-07-20T07:31:52;12.85;;;9.27;;
79585;SDS011;69054;50.866;4.636;2023-07-20T07:34:18;12.35;;;9.43;;
79585;SDS011;69054;50.866;4.636;2023-07-20T07:36:43;11.77;;;8.70;;
79585;SDS011;69054;50.866;4.636;2023-07-20T07:39:09;14.30;;;8.70;;
79585;SDS011;69054;50.866;4.636;2023-07-20T07:41:35;10.85;;;7.85;;
79585;SDS011;69054;50.866;4.636;2023-07-20T07:44:01;13.35;;;9.57;;
79585;SDS011;69054;50.866;4.636;2023-07-20T07:46:27;13.60;;;8.57;;
79585;SDS011;69054;50.866;4.636;2023-07-20T07:48:52;11.82;;;8.38;;
79585;SDS011;69054;50.866;4.636;2023-07-20T07:51:18;10.80;;;7.70;;
79585;SDS011;69054;50.866;4.636;2023-07-20T07:53:44;10.20;;;7.18;;
79585;SDS011;69054;50.866;4.636;2023-07-20T07:56:10;9.70;;;7.05;;
79585;SDS011;69054;50.866;4.636;2023-07-20T07:58:35;10.07;;;6.43;;
79585;SDS011;69054;50.866;4.636;2023-07-20T08:01:01;7.80;;;5.95;;
79585;SDS011;69054;50.866;4.636;2023-07-20T08:03:26;8.85;;;5.93;;
79585;SDS011;69054;50.866;4.636;2023-07-20T08:05:54;6.95;;;5.03;;
79585;SDS011;69054;50.866;4.636;2023-07-20T08:08:20;5.80;;;4.07;;
79585;SDS011;69054;50.866;4.636;2023-07-20T08:10:46;6.68;;;5.22;;
79585;SDS011;69054;50.866;4.636;2023-07-20T08:13:12;5.97;;;4.70;;
79585;SDS011;69054;50.866;4.636;2023-07-20T08:15:37;5.75;;;4.10;;
79585;SDS011;69054;50.866;4.636;2023-07-20T08:18:03;4.60;;;3.83;;
79585;SDS011;69054;50.866;4.636;2023-07-20T08:20:28;4.22;;;3.20;;
79585;SDS011;69054;50.866;4.636;2023-07-20T08:22:54;5.45;;;4.80;;
79585;SDS011;69054;50.866;4.636;2023-07-20T08:25:20;6.90;;;4.80;;
79585;SDS011;69054;50.866;4.636;2023-07-20T08:27:45;6.38;;;5.30;;
79585;SDS011;69054;50.866;4.636;2023-07-20T08:30:13;6.30;;;5.22;;
79585;SDS011;69054;50.866;4.636;2023-07-20T08:32:38;7.55;;;5.47;;
79585;SDS011;69054;50.866;4.636;2023-07-20T08:35:04;7.43;;;5.53;;
79585;SDS011;69054;50.866;4.636;2023-07-20T08:37:31;6.97;;;5.80;;
79585;SDS011;69054;50.866;4.636;2023-07-20T08:39:56;8.85;;;5.97;;
79585;SDS011;69054;50.866;4.636;2023-07-20T08:42:21;5.63;;;4.82;;
79585;SDS011;69054;50.866;4.636;2023-07-20T08:44:48;6.25;;;5.15;;
79585;SDS011;69054;50.866;4.636;2023-07-20T08:47:13;5.25;;;4.72;;
79585;SDS011;69054;50.866;4.636;2023-07-20T08:49:41;6.30;;;4.78;;
79585;SDS011;69054;50.866;4.636;2023-07-20T08:52:07;6.05;;;4.50;;
79585;SDS011;69054;50.866;4.636;2023-07-20T08:54:33;6.93;;;5.35;;
79585;SDS011;69054;50.866;4.636;2023-07-20T08:57:03;5.03;;;4.00;;
79585;SDS011;69054;50.866;4.636;2023-07-20T08:59:30;5.47;;;3.88;;
79585;SDS011;69054;50.866;4.636;2023-07-20T09:01:57;6.22;;;4.25;;
79585;SDS011;69054;50.866;4.636;2023-07-20T09:04:23;5.45;;;3.22;;
79585;SDS011;69054;50.866;4.636;2023-07-20T09:06:49;3.35;;;3.00;;
79585;SDS011;69054;50.866;4.636;2023-07-20T09:09:15;4.00;;;3.13;;
79585;SDS011;69054;50.866;4.636;2023-07-20T09:11:41;6.00;;;3.10;;
79585;SDS011;69054;50.866;4.636;2023-07-20T09:14:06;4.38;;;3.03;;
79585;SDS011;69054;50.866;4.636;2023-07-20T09:16:46;4.40;;;2.90;;
79585;SDS011;69054;50.866;4.636;2023-07-20T09:19:16;5.63;;;3.50;;
79585;SDS011;69054;50.866;4.636;2023-07-20T09:21:44;3.47;;;3.08;;
79585;SDS011;69054;50.866;4.636;2023-07-20T09:24:17;3.85;;;3.20;;
79585;SDS011;69054;50.866;4.636;2023-07-20T09:26:43;3.90;;;3.50;;
79585;SDS011;69054;50.866;4.636;2023-07-20T09:29:10;4.47;;;3.30;;
79585;SDS011;69054;50.866;4.636;2023-07-20T09:31:36;5.70;;;3.30;;
79585;SDS011;69054;50.866;4.636;2023-07-20T09:34:02;5.00;;;3.15;;
79585;SDS011;69054;50.866;4.636;2023-07-20T09:36:29;4.07;;;3.25;;
79585;SDS011;69054;50.866;4.636;2023-07-20T09:38:59;4.00;;;2.80;;
79585;SDS011;69054;50.866;4.636;2023-07-20T09:41:24;3.97;;;2.83;;
79585;SDS011;69054;50.866;4.636;2023-07-20T09:43:50;3.58;;;2.85;;
79585;SDS011;69054;50.866;4.636;2023-07-20T09:46:16;3.35;;;2.83;;
79585;SDS011;69054;50.866;4.636;2023-07-20T09:48:45;5.00;;;3.17;;
79585;SDS011;69054;50.866;4.636;2023-07-20T09:51:18;5.22;;;3.17;;
79585;SDS011;69054;50.866;4.636;2023-07-20T09:53:45;5.15;;;3.05;;
79585;SDS011;69054;50.866;4.636;2023-07-20T09:56:13;3.90;;;2.92;;
79585;SDS011;69054;50.866;4.636;2023-07-20T09:58:41;3.50;;;2.83;;
79585;SDS011;69054;50.866;4.636;2023-07-20T10:01:08;3.65;;;2.80;;
79585;SDS011;69054;50.866;4.636;2023-07-20T10:03:35;4.32;;;2.83;;
79585;SDS011;69054;50.866;4.636;2023-07-20T10:06:05;3.17;;;2.40;;
79585;SDS011;69054;50.866;4.636;2023-07-20T10:08:34;3.58;;;2.40;;
79585;SDS011;69054;50.866;4.636;2023-07-20T10:11:05;2.80;;;2.25;;
79585;SDS011;69054;50.866;4.636;2023-07-20T10:13:32;3.03;;;2.25;;
79585;SDS011;69054;50.866;4.636;2023-07-20T10:18:59;3.28;;;2.20;;
79585;SDS011;69054;50.866;4.636;2023-07-20T10:21:26;3.08;;;2.00;;
79585;SDS011;69054;50.866;4.636;2023-07-20T10:23:54;2.30;;;1.80;;
79585;SDS011;69054;50.866;4.636;2023-07-20T10:26:21;3.38;;;1.88;;
79585;SDS011;69054;50.866;4.636;2023-07-20T10:28:46;3.20;;;2.00;;
79585;SDS011;69054;50.866;4.636;2023-07-20T10:31:12;3.10;;;2.20;;
79585;SDS011;69054;50.866;4.636;2023-07-20T10:33:38;2.53;;;1.90;;
79585;SDS011;69054;50.866;4.636;2023-07-20T10:36:05;3.53;;;1.98;;
79585;SDS011;69054;50.866;4.636;2023-07-20T10:38:52;2.55;;;1.80;;
79585;SDS011;69054;50.866;4.636;2023-07-20T10:43:45;3.92;;;1.80;;
79585;SDS011;69054;50.866;4.636;2023-07-20T10:46:12;3.17;;;1.80;;
79585;SDS011;69054;50.866;4.636;2023-07-20T10:51:27;3.90;;;1.90;;
79585;SDS011;69054;50.866;4.636;2023-07-20T10:53:54;2.80;;;2.05;;
79585;SDS011;69054;50.866;4.636;2023-07-20T10:56:22;4.30;;;2.10;;
79585;SDS011;69054;50.866;4.636;2023-07-20T10:58:48;2.33;;;1.80;;
79585;SDS011;69054;50.866;4.636;2023-07-20T11:01:16;4.13;;;1.90;;
79585;SDS011;69054;50.866;4.636;2023-07-20T11:03:42;3.03;;;2.03;;
79585;SDS011;69054;50.866;4.636;2023-07-20T11:06:29;2.70;;;1.70;;
79585;SDS011;69054;50.866;4.636;2023-07-20T11:11:30;4.53;;;2.40;;
79585;SDS011;69054;50.866;4.636;2023-07-20T11:13:57;3.30;;;2.15;;
79585;SDS011;69054;50.866;4.636;2023-07-20T11:16:33;3.60;;;2.20;;
79585;SDS011;69054;50.866;4.636;2023-07-20T11:19:00;5.30;;;2.35;;
79585;SDS011;69054;50.866;4.636;2023-07-20T11:21:25;4.72;;;2.10;;
79585;SDS011;69054;50.866;4.636;2023-07-20T11:23:52;3.28;;;2.00;;
79585;SDS011;69054;50.866;4.636;2023-07-20T11:26:18;2.88;;;1.85;;
79585;SDS011;69054;50.866;4.636;2023-07-20T11:28:48;3.42;;;1.90;;
79585;SDS011;69054;50.866;4.636;2023-07-20T11:31:14;3.17;;;2.00;;
79585;SDS011;69054;50.866;4.636;2023-07-20T11:33:43;3.13;;;1.80;;
79585;SDS011;69054;50.866;4.636;2023-07-20T11:36:08;2.30;;;1.77;;
79585;SDS011;69054;50.866;4.636;2023-07-20T11:38:34;4.43;;;2.22;;
79585;SDS011;69054;50.866;4.636;2023-07-20T11:40:59;3.45;;;2.30;;
79585;SDS011;69054;50.866;4.636;2023-07-20T11:43:25;4.30;;;2.30;;
79585;SDS011;69054;50.866;4.636;2023-07-20T11:45:51;3.35;;;2.33;;
79585;SDS011;69054;50.866;4.636;2023-07-20T11:48:17;3.22;;;2.30;;
79585;SDS011;69054;50.866;4.636;2023-07-20T11:50:42;4.13;;;2.50;;
